Accueil
METAR-TAF:

METAR-TAF

Aéroports :

Yap, Yap Island, Micronésie

Aéroport international de Yap

latitude: 09-29N, longitude: 138-05E, altitude: 28 m

Observation

Le bulletin a été fait il y a 40 minutes, à 11:55 UTC
Vent calme
Température 27°C
Humidité 89%
Pression 1011 hPa
Visibilité: 19.3 km
Nuages épars à une hauteur de 1600 ft
Nuages fragmentés à une hauteur de 30000 ft

METAR: PTYA 231155Z 00000KT 12SM SCT016 BKN300 27/25 A2984 RMK SLP107 8/101 T02670249 10294 20267 52017

Heure: 22:35 (12:35 UTC)

Prévision

Le bulletin a été fait il y a 1 heure et 9 minutes, à 11:26 UTC
Prévision valable du 23 à 12 UTC au 24 à 12 UTC
Vent 5 kt de est
Visibilité: 10 km
Nuages épars à une hauteur de 1600 ft
Nuages fragmentés à une hauteur de 13000 ft
Ciel couvert à une hauteur de 30000 ft
averses à proximité

TAF: PTYA 231126Z 2312/2412 09005KT P6SM VCSH SCT016 BKN130 OVC300

Observations et prévisions météorologiques de plus de 4000 aéroports (messages METAR et TAF).

Les stations disponibles sont représentées par des disques jaunes et rouges sur la carte.

Passer la souris dessus pour voir le nom de la station.

Cliquer dessus pour voir les observations et prévisions météorologiques.

Pour changer de carte: cliquez sur les boutons verts avec une croix noire pour zoomer, sur le bouton vert avec un tiret pour effectuer un zoom arrière, ou sur les flèches vertes pour les cartes adjacentes.


METAR-TAF: